Time;durP1;ratioP1;P1;durP2;ratioP2;P2;SDS_P1;SDS_P2;PMS_P1;PMS_P2;Temp;Humidity;BMP_temperature;BMP_pressure;BME280_temperature;BME280_humidity;BME280_pressure;Samples;Min_cycle;Max_cycle;Signal;HPM_P1;HPM_P2
2022/09/01 00:02:44;;;;;;;2.80;2.30;;;19.80;69.00;;;;;;20670735;28;20243;-75
2022/09/01 00:12:46;;;;;;;2.97;2.20;;;19.80;69.80;;;;;;20670298;28;20245;-75
2022/09/01 00:22:48;;;;;;;2.30;2.10;;;19.60;70.20;;;;;;20669586;28;20242;-76
2022/09/01 00:32:50;;;;;;;5.17;2.20;;;19.50;70.90;;;;;;20668755;28;20204;-74
2022/09/01 00:42:52;;;;;;;3.77;2.20;;;19.40;71.50;;;;;;20668319;28;20243;-74
2022/09/01 00:52:54;;;;;;;4.90;2.40;;;19.30;72.10;;;;;;20667918;28;20217;-75
2022/09/01 01:02:57;;;;;;;3.37;2.33;;;19.20;72.60;;;;;;20667364;28;20238;-74
2022/09/01 01:13:03;;;;;;;2.50;2.27;;;19.10;73.10;;;;;;20667083;28;20709;-75
2022/09/01 01:23:05;;;;;;;2.80;2.50;;;19.10;73.50;;;;;;20666295;28;20242;-75
2022/09/01 01:33:07;;;;;;;2.50;2.30;;;19.00;73.80;;;;;;20665902;28;20218;-75
2022/09/01 01:43:10;;;;;;;3.67;2.40;;;18.90;74.20;;;;;;20665797;28;20238;-75
2022/09/01 01:53:12;;;;;;;4.60;2.70;;;18.80;74.80;;;;;;20673649;28;20211;-75
2022/09/01 02:03:20;;;;;;;3.57;2.40;;;18.70;75.50;;;;;;20679873;28;20260;-77
2022/09/01 02:13:29;;;;;;;5.03;2.60;;;18.60;76.00;;;;;;20662438;28;20790;-77
2022/09/01 02:23:32;;;;;;;11.47;2.87;;;18.50;76.70;;;;;;20678766;28;20281;-75
2022/09/01 02:33:36;;;;;;;6.57;2.50;;;18.40;76.80;;;;;;20678083;28;20209;-76
2022/09/01 02:43:38;;;;;;;3.07;2.33;;;18.30;77.00;;;;;;20677308;28;20237;-78
2022/09/01 02:53:41;;;;;;;4.07;2.73;;;18.10;77.30;;;;;;20677067;28;20232;-78
2022/09/01 03:03:43;;;;;;;4.87;3.37;;;18.00;77.80;;;;;;20676459;28;20696;-75
2022/09/01 03:13:45;;;;;;;7.10;2.87;;;17.90;78.40;;;;;;20675515;28;20250;-79
2022/09/01 03:23:50;;;;;;;4.27;3.20;;;17.80;79.20;;;;;;20675417;28;20708;-75
2022/09/01 03:33:53;;;;;;;3.43;2.57;;;17.70;79.70;;;;;;20674333;28;20213;-75
2022/09/01 03:43:57;;;;;;;11.40;3.20;;;17.80;80.30;;;;;;20673235;28;20305;-77
2022/09/01 03:53:59;;;;;;;7.47;3.20;;;17.70;80.60;;;;;;20674116;28;20294;-77
2022/09/01 04:04:03;;;;;;;20.00;3.30;;;17.60;81.00;;;;;;20674015;28;20246;-79
2022/09/01 04:14:05;;;;;;;7.60;3.30;;;17.50;81.30;;;;;;20673070;28;20250;-76
2022/09/01 04:24:09;;;;;;;7.87;3.30;;;17.50;81.70;;;;;;20655838;28;20322;-75
2022/09/01 04:34:12;;;;;;;12.97;3.80;;;17.40;82.00;;;;;;20668522;28;20577;-76
2022/09/01 04:44:17;;;;;;;20.13;4.63;;;17.40;82.80;;;;;;20668063;28;20746;-77
2022/09/01 04:54:21;;;;;;;32.63;4.97;;;17.30;83.40;;;;;;20666944;28;20273;-74
2022/09/01 05:04:26;;;;;;;13.90;4.33;;;17.30;83.80;;;;;;20666342;28;20315;-70
2022/09/01 05:14:28;;;;;;;21.57;4.67;;;17.30;84.40;;;;;;20666573;28;20722;-75
2022/09/01 05:24:31;;;;;;;23.33;4.77;;;17.40;84.50;;;;;;20668533;28;20243;-70
2022/09/01 05:34:36;;;;;;;13.27;4.07;;;17.50;84.90;;;;;;20683986;28;20208;-77
2022/09/01 05:44:43;;;;;;;46.43;5.50;;;17.50;84.70;;;;;;20683206;28;20245;-72
2022/09/01 05:54:46;;;;;;;59.37;6.50;;;17.60;84.70;;;;;;20678861;28;20213;-73
2022/09/01 06:04:55;;;;;;;37.03;6.00;;;17.80;84.60;;;;;;20679582;28;20592;-71
2022/09/01 06:14:57;;;;;;;46.53;6.50;;;17.80;84.70;;;;;;20676801;28;20589;-68
2022/09/01 06:24:59;;;;;;;25.27;6.33;;;17.90;85.00;;;;;;20654777;28;20287;-77
2022/09/01 06:35:07;;;;;;;20.57;4.83;;;18.00;85.00;;;;;;20671367;28;20210;-70
2022/09/01 06:45:10;;;;;;;5.70;3.60;;;18.10;85.00;;;;;;20671647;28;20241;-71
2022/09/01 06:55:13;;;;;;;4.77;3.30;;;18.30;84.50;;;;;;20670859;28;20222;-70
2022/09/01 07:05:20;;;;;;;7.57;3.67;;;18.60;83.80;;;;;;20669998;28;20574;-68
2022/09/01 07:15:42;;;;;;;7.60;3.47;;;18.80;83.20;;;;;;20634826;28;1037875;-71
2022/09/01 07:26:07;;;;;;;6.17;3.10;;;18.80;82.80;;;;;;20672267;28;20231;-70
2022/09/01 07:36:09;;;;;;;5.10;3.10;;;19.00;82.60;;;;;;20671699;28;20212;-67
2022/09/01 07:46:31;;;;;;;5.30;3.13;;;19.40;82.30;;;;;;20669255;28;20860;-68
2022/09/01 07:56:40;;;;;;;6.53;2.90;;;19.70;81.10;;;;;;20652835;28;20204;-66
2022/09/01 08:06:42;;;;;;;5.97;2.80;;;20.20;80.00;;;;;;20666529;28;20763;-67
2022/09/01 08:16:44;;;;;;;4.07;2.97;;;20.40;78.30;;;;;;20667659;28;20252;-70
2022/09/01 08:26:53;;;;;;;3.57;2.90;;;20.60;77.00;;;;;;20667911;28;20233;-69
2022/09/01 08:36:55;;;;;;;3.80;2.50;;;20.90;76.70;;;;;;20666900;28;20228;-67
2022/09/01 08:47:03;;;;;;;4.73;2.30;;;21.10;74.80;;;;;;20666669;28;20705;-69
2022/09/01 08:57:15;;;;;;;4.47;2.77;;;21.30;73.60;;;;;;20666538;28;20214;-68
2022/09/01 09:07:38;;;;;;;3.90;2.50;;;21.60;72.00;;;;;;20665001;28;20247;-69
2022/09/01 09:17:46;;;;;;;5.33;2.80;;;21.90;70.60;;;;;;20664975;28;20732;-68
2022/09/01 09:27:49;;;;;;;7.53;2.83;;;22.10;68.90;;;;;;20664702;28;20238;-68
2022/09/01 09:38:18;;;;;;;4.23;2.60;;;22.20;67.90;;;;;;20664441;28;20237;-66
2022/09/01 09:48:28;;;;;;;3.13;2.47;;;22.30;67.10;;;;;;20647427;28;20245;-66
2022/09/01 09:58:41;;;;;;;2.83;2.40;;;22.40;66.20;;;;;;20663899;28;20693;-68
2022/09/01 10:08:44;;;;;;;2.97;2.40;;;22.70;65.00;;;;;;20663363;28;20233;-68
2022/09/01 10:18:47;;;;;;;7.17;2.30;;;23.00;63.60;;;;;;20677718;28;20253;-67
2022/09/01 10:29:03;;;;;;;4.93;2.40;;;23.20;62.50;;;;;;20678021;28;20244;-70
2022/09/01 10:39:10;;;;;;;4.97;3.13;;;23.30;60.70;;;;;;20676575;28;20312;-71
2022/09/01 10:49:32;;;;;;;3.90;2.00;;;23.50;59.90;;;;;;20675897;28;20253;-68
2022/09/01 10:59:34;;;;;;;6.67;2.07;;;23.60;58.50;;;;;;20673707;28;20230;-67
2022/09/01 11:10:06;;;;;;;2.50;2.13;;;23.90;57.10;;;;;;20674238;28;20214;-70
2022/09/01 11:20:34;;;;;;;3.33;2.73;;;23.90;55.80;;;;;;20655895;28;20245;-70
2022/09/01 11:30:54;;;;;;;7.57;2.30;;;23.80;55.10;;;;;;20672183;28;20292;-70
2022/09/01 11:40:56;;;;;;;3.10;2.17;;;23.90;55.10;;;;;;20654746;28;20237;-70
2022/09/01 11:51:01;;;;;;;6.07;2.20;;;24.10;55.70;;;;;;20669896;28;20210;-64
2022/09/01 12:01:18;;;;;;;2.87;2.10;;;24.20;55.10;;;;;;20669330;28;20229;-67
2022/09/01 12:11:29;;;;;;;5.10;2.60;;;24.20;53.50;;;;;;20668514;28;20210;-63
2022/09/01 12:21:39;;;;;;;2.90;2.20;;;24.30;53.90;;;;;;20668269;28;20584;-64
2022/09/01 12:31:43;;;;;;;2.77;2.07;;;24.50;53.70;;;;;;20667361;28;20210;-65
2022/09/01 12:41:59;;;;;;;11.77;2.20;;;24.40;53.70;;;;;;20666817;28;20242;-66
2022/09/01 12:52:10;;;;;;;4.67;1.80;;;24.30;53.30;;;;;;20666555;28;20205;-64
2022/09/01 13:02:33;;;;;;;4.03;2.47;;;24.20;52.80;;;;;;20663205;28;20231;-67
2022/09/01 13:12:40;;;;;;;3.10;1.93;;;24.10;52.10;;;;;;20662880;28;20237;-64
2022/09/01 13:22:43;;;;;;;3.47;2.10;;;24.00;51.90;;;;;;20663888;28;20237;-66
2022/09/01 13:32:46;;;;;;;4.43;1.90;;;24.00;52.00;;;;;;20664400;28;20209;-72
2022/09/01 13:43:08;;;;;;;4.83;2.33;;;24.00;52.10;;;;;;20663773;28;20241;-72
2022/09/01 13:53:10;;;;;;;2.10;1.90;;;24.00;51.70;;;;;;20678137;28;20213;-65
2022/09/01 14:03:19;;;;;;;2.17;1.97;;;24.10;51.60;;;;;;20678720;28;20513;-64
2022/09/01 14:13:23;;;;;;;2.93;1.80;;;24.10;51.80;;;;;;20678209;28;20233;-64
2022/09/01 14:23:24;;;;;;;2.20;2.00;;;24.10;51.60;;;;;;20677708;28;20698;-63
2022/09/01 14:33:26;;;;;;;7.27;2.80;;;24.10;51.40;;;;;;20677421;28;20217;-65
2022/09/01 14:43:30;;;;;;;2.90;2.00;;;24.10;51.50;;;;;;20676518;28;20610;-68
2022/09/01 14:53:32;;;;;;;4.30;2.20;;;24.20;51.60;;;;;;20675332;28;20297;-69
2022/09/01 15:03:34;;;;;;;3.93;2.03;;;24.30;51.50;;;;;;20674409;28;20234;-71
2022/09/01 15:13:37;;;;;;;4.13;1.80;;;24.50;51.30;;;;;;20658024;28;20231;-62
2022/09/01 15:23:39;;;;;;;2.87;2.00;;;24.70;51.00;;;;;;20606971;28;20238;-62
2022/09/01 15:33:41;;;;;;;2.80;2.07;;;24.90;50.70;;;;;;20590178;28;20659;-64
2022/09/01 15:43:43;;;;;;;4.43;2.10;;;24.90;50.60;;;;;;20590281;28;20226;-73
2022/09/01 15:53:44;;;;;;;9.80;2.10;;;24.70;50.80;;;;;;20590729;28;20218;-70
2022/09/01 16:03:47;;;;;;;2.47;1.90;;;24.70;51.00;;;;;;20590385;28;20256;-68
2022/09/01 16:13:52;;;;;;;2.60;2.03;;;24.50;51.10;;;;;;20610112;28;20245;-68
2022/09/01 16:23:54;;;;;;;7.07;2.10;;;24.40;51.20;;;;;;20669225;28;20690;-68
2022/09/01 16:34:00;;;;;;;4.90;2.00;;;24.20;51.00;;;;;;20668451;28;20210;-67
2022/09/01 16:44:17;;;;;;;4.70;1.90;;;24.20;51.00;;;;;;20668084;28;20237;-71
2022/09/01 16:54:27;;;;;;;5.27;2.53;;;24.00;50.70;;;;;;20667942;28;20722;-65
2022/09/01 17:05:01;;;;;;;2.33;1.80;;;23.90;50.70;;;;;;20666913;28;20237;-66
2022/09/01 17:15:08;;;;;;;2.83;2.10;;;23.80;50.60;;;;;;20655905;28;20724;-63
2022/09/01 17:25:20;;;;;;;2.27;1.87;;;23.70;50.50;;;;;;20678619;28;20239;-69
2022/09/01 17:35:31;;;;;;;2.17;1.83;;;23.50;50.50;;;;;;20682475;28;20209;-64
2022/09/01 17:45:44;;;;;;;5.80;2.10;;;23.40;50.50;;;;;;20681542;28;20237;-65
2022/09/01 17:55:58;;;;;;;2.80;2.13;;;23.20;50.70;;;;;;20680510;28;20220;-64
2022/09/01 18:06:13;;;;;;;6.30;2.30;;;23.10;51.10;;;;;;20678174;28;20233;-71
2022/09/01 18:16:19;;;;;;;3.73;2.53;;;22.90;51.50;;;;;;20676808;28;20244;-64
2022/09/01 18:26:31;;;;;;;2.73;2.00;;;22.80;52.10;;;;;;20675614;28;20226;-67
2022/09/01 18:37:26;;;;;;;11.60;2.53;;;22.60;52.70;;;;;;20677134;28;20297;-67
2022/09/01 18:47:40;;;;;;;3.77;2.10;;;22.40;53.20;;;;;;20558893;28;20230;-69
2022/09/01 18:57:49;;;;;;;6.30;2.97;;;22.30;53.80;;;;;;20676861;28;20624;-69
2022/09/01 19:07:55;;;;;;;4.93;3.10;;;22.10;54.80;;;;;;20673216;28;20241;-67
2022/09/01 19:18:29;;;;;;;5.17;3.27;;;22.10;54.70;;;;;;20673914;28;20234;-71
2022/09/01 19:28:40;;;;;;;4.50;2.60;;;22.00;55.10;;;;;;20672900;28;20229;-68
2022/09/01 19:38:41;;;;;;;4.13;2.60;;;21.90;55.60;;;;;;20672159;28;20677;-70
2022/09/01 19:48:57;;;;;;;6.93;4.70;;;21.80;55.90;;;;;;20670997;28;20276;-71
2022/09/01 19:58:58;;;;;;;4.13;2.40;;;21.70;56.20;;;;;;20671272;28;20216;-71
2022/09/01 20:09:16;;;;;;;4.47;2.40;;;21.50;56.60;;;;;;20670796;28;20240;-73
2022/09/01 20:19:30;;;;;;;7.07;2.80;;;21.30;56.90;;;;;;20669643;28;20237;-70
2022/09/01 20:29:59;;;;;;;4.43;2.53;;;21.20;57.20;;;;;;20669403;28;20239;-75
2022/09/01 20:40:13;;;;;;;3.03;2.60;;;21.00;57.50;;;;;;20666989;28;20587;-71
2022/09/01 20:50:18;;;;;;;6.70;2.87;;;20.90;58.00;;;;;;20665160;28;20667;-71
2022/09/01 21:00:24;;;;;;;3.60;2.30;;;20.80;58.30;;;;;;20664885;28;20663;-68
2022/09/01 21:10:59;;;;;;;5.20;2.60;;;20.60;59.20;;;;;;20665189;28;20300;-69
2022/09/01 21:21:17;;;;;;;6.07;2.27;;;20.40;58.80;;;;;;20664297;28;20246;-71
2022/09/01 21:31:19;;;;;;;3.60;2.27;;;20.30;59.10;;;;;;20664099;28;20213;-71
2022/09/01 21:41:21;;;;;;;3.70;2.47;;;20.20;59.30;;;;;;20664046;28;20709;-73
2022/09/01 21:51:22;;;;;;;7.20;2.13;;;20.10;59.40;;;;;;20663155;28;20232;-74
2022/09/01 22:01:29;;;;;;;5.80;2.40;;;20.10;59.40;;;;;;20662713;28;20242;-71
2022/09/01 22:11:31;;;;;;;3.33;2.43;;;20.00;59.50;;;;;;20673305;28;20252;-71
2022/09/01 22:21:34;;;;;;;3.67;2.40;;;19.80;59.90;;;;;;20678929;28;20247;-68
2022/09/01 22:31:37;;;;;;;2.53;2.07;;;19.60;60.20;;;;;;20676945;28;20350;-73
2022/09/01 22:41:40;;;;;;;4.70;2.50;;;19.50;60.60;;;;;;20660805;28;20254;-72
2022/09/01 22:51:42;;;;;;;3.13;2.50;;;19.40;60.60;;;;;;20676842;28;20214;-75
2022/09/01 23:01:46;;;;;;;3.90;2.37;;;19.30;61.10;;;;;;20676306;28;20230;-74
2022/09/01 23:11:49;;;;;;;3.00;2.30;;;19.10;62.10;;;;;;20675616;28;20241;-71
2022/09/01 23:21:51;;;;;;;2.67;2.10;;;19.00;62.50;;;;;;20674631;28;20237;-71
2022/09/01 23:31:53;;;;;;;3.30;2.30;;;18.70;62.80;;;;;;20674137;28;20207;-72
2022/09/01 23:41:54;;;;;;;5.50;2.13;;;18.60;63.10;;;;;;20673630;28;20293;-72
2022/09/01 23:51:56;;;;;;;2.83;2.20;;;18.50;63.60;;;;;;20672571;28;20617;-70
